createdAt,value
2022-07-31T00:00:28.341Z,7.60
2022-07-31T00:02:56.563Z,8.52
2022-07-31T00:05:26.064Z,8.18
2022-07-31T00:07:56.102Z,8.18
2022-07-31T00:10:23.880Z,8.00
2022-07-31T00:12:51.804Z,8.00
2022-07-31T00:15:19.663Z,7.93
2022-07-31T00:17:47.344Z,7.32
2022-07-31T00:20:18.303Z,8.00
2022-07-31T00:22:49.125Z,7.32
2022-07-31T00:25:18.009Z,6.90
2022-07-31T00:27:46.301Z,7.63
2022-07-31T00:30:14.246Z,8.43
2022-07-31T00:32:42.157Z,8.15
2022-07-31T00:35:12.504Z,8.05
2022-07-31T00:37:41.701Z,7.53
2022-07-31T00:40:13.310Z,8.55
2022-07-31T00:42:40.688Z,8.88
2022-07-31T00:45:10.737Z,8.43
2022-07-31T00:47:41.970Z,8.30
2022-07-31T00:50:11.918Z,8.23
2022-07-31T00:52:39.169Z,8.68
2022-07-31T00:55:07.537Z,8.18
2022-07-31T00:57:34.564Z,7.45
2022-07-31T01:00:01.730Z,9.82
2022-07-31T01:02:29.616Z,8.57
2022-07-31T01:04:56.644Z,8.93
2022-07-31T01:07:23.688Z,9.48
2022-07-31T01:09:53.923Z,9.57
2022-07-31T01:12:54.199Z,9.68
2022-07-31T01:15:25.821Z,8.82
2022-07-31T01:17:57.065Z,8.25
2022-07-31T01:20:28.510Z,8.70
2022-07-31T01:23:42.078Z,9.10
2022-07-31T01:26:59.877Z,9.40
2022-07-31T01:29:53.676Z,10.57
2022-07-31T01:32:37.490Z,9.93
2022-07-31T01:35:22.582Z,10.27
2022-07-31T01:38:35.747Z,9.30
2022-07-31T01:41:12.494Z,10.50
2022-07-31T01:43:50.680Z,9.60
2022-07-31T01:46:24.909Z,9.68
2022-07-31T01:48:57.958Z,9.38
2022-07-31T01:51:29.749Z,10.30
2022-07-31T01:54:02.313Z,9.02
2022-07-31T01:56:34.673Z,9.57
2022-07-31T01:59:05.775Z,10.07
2022-07-31T02:01:50.717Z,8.90
2022-07-31T02:04:21.750Z,9.82
2022-07-31T02:06:52.955Z,9.77
2022-07-31T02:09:25.854Z,10.20
2022-07-31T02:11:56.847Z,11.68
2022-07-31T02:14:25.801Z,12.05
2022-07-31T02:16:56.941Z,11.05
2022-07-31T02:19:27.094Z,10.13
2022-07-31T02:22:00.535Z,10.32
2022-07-31T02:24:28.067Z,10.43
2022-07-31T02:26:58.394Z,10.60
2022-07-31T02:29:32.161Z,11.60
2022-07-31T02:32:03.533Z,10.38
2022-07-31T02:34:35.753Z,10.73
2022-07-31T02:37:07.667Z,10.93
2022-07-31T02:39:38.958Z,10.73
2022-07-31T02:42:12.959Z,11.63
2022-07-31T02:44:40.891Z,9.63
2022-07-31T02:47:08.752Z,10.85
2022-07-31T02:49:36.134Z,11.82
2022-07-31T02:52:06.855Z,11.05
2022-07-31T02:54:40.897Z,11.27
2022-07-31T02:57:09.202Z,10.35
2022-07-31T02:59:40.065Z,9.90
2022-07-31T03:02:07.777Z,9.52
2022-07-31T03:04:34.851Z,9.38
2022-07-31T03:07:02.713Z,10.50
2022-07-31T03:09:30.816Z,9.98
2022-07-31T03:14:36.744Z,10.68
2022-07-31T03:17:06.978Z,10.15
2022-07-31T03:19:35.406Z,9.50
2022-07-31T03:22:03.424Z,9.20
2022-07-31T03:24:31.802Z,10.45
2022-07-31T03:27:00.325Z,10.18
2022-07-31T03:29:42.836Z,10.63
2022-07-31T03:32:10.881Z,10.70
2022-07-31T03:34:38.028Z,11.35
2022-07-31T03:37:05.075Z,10.37
2022-07-31T03:39:32.093Z,11.20
2022-07-31T03:42:01.710Z,12.35
2022-07-31T03:44:32.755Z,12.50
2022-07-31T03:47:01.126Z,11.35
2022-07-31T03:49:31.020Z,11.45
2022-07-31T03:51:59.520Z,11.95
2022-07-31T03:54:27.155Z,13.55
2022-07-31T03:56:58.221Z,12.02
2022-07-31T03:59:29.798Z,11.02
2022-07-31T04:02:10.358Z,11.75
2022-07-31T04:04:39.210Z,12.43
2022-07-31T04:07:06.391Z,12.65
2022-07-31T04:09:33.962Z,11.20
2022-07-31T04:12:01.499Z,11.98
2022-07-31T04:14:28.858Z,10.98
2022-07-31T04:16:55.900Z,11.77
2022-07-31T04:19:22.926Z,11.68
2022-07-31T04:21:50.696Z,12.32
2022-07-31T04:24:18.492Z,13.05
2022-07-31T04:26:45.946Z,11.77
2022-07-31T04:29:13.018Z,11.98
2022-07-31T04:31:40.056Z,12.23
2022-07-31T04:34:07.064Z,12.23
2022-07-31T04:36:34.063Z,11.27
2022-07-31T04:39:01.915Z,12.25
2022-07-31T04:41:29.155Z,10.93
2022-07-31T04:43:59.773Z,12.47
2022-07-31T04:46:27.313Z,11.65
2022-07-31T04:48:54.561Z,11.75
2022-07-31T04:51:24.229Z,11.90
2022-07-31T04:53:52.548Z,12.02
2022-07-31T04:56:38.996Z,11.32
2022-07-31T04:59:11.937Z,11.93
2022-07-31T05:01:42.266Z,12.27
2022-07-31T05:04:11.017Z,11.55
2022-07-31T05:06:49.059Z,12.25
2022-07-31T05:09:25.450Z,10.23
2022-07-31T05:11:53.347Z,11.43
2022-07-31T05:14:21.737Z,10.85
2022-07-31T05:16:50.199Z,11.80
2022-07-31T05:19:18.225Z,9.90
2022-07-31T05:24:32.906Z,10.55
2022-07-31T05:27:03.386Z,11.40
2022-07-31T05:29:33.170Z,12.15
2022-07-31T05:32:01.457Z,10.75
2022-07-31T05:34:30.720Z,12.02
2022-07-31T05:37:02.340Z,11.40
2022-07-31T05:44:08.564Z,10.13
2022-07-31T05:46:35.617Z,10.27
2022-07-31T05:49:02.741Z,12.07
2022-07-31T05:51:30.609Z,9.40
2022-07-31T05:53:57.778Z,9.65
2022-07-31T05:56:26.203Z,9.63
2022-07-31T05:58:53.259Z,8.35
2022-07-31T06:01:20.323Z,8.73
2022-07-31T06:03:52.286Z,8.17
2022-07-31T06:06:20.067Z,8.18
2022-07-31T06:08:47.399Z,8.07
2022-07-31T06:11:14.369Z,7.63
2022-07-31T06:13:43.384Z,7.82
2022-07-31T06:16:15.647Z,7.80
2022-07-31T06:18:43.311Z,7.20
2022-07-31T06:23:37.625Z,8.25
2022-07-31T06:26:05.892Z,7.78
2022-07-31T06:28:47.654Z,8.27
2022-07-31T06:31:21.877Z,7.57
2022-07-31T06:33:50.848Z,7.38
2022-07-31T06:36:19.477Z,7.50
2022-07-31T06:38:46.697Z,7.57
2022-07-31T06:41:32.759Z,7.70
2022-07-31T06:43:59.945Z,7.40
2022-07-31T06:46:27.551Z,7.30
2022-07-31T06:48:54.832Z,6.95
2022-07-31T06:51:31.213Z,7.57
2022-07-31T06:54:06.112Z,6.90
2022-07-31T06:56:36.127Z,7.20
2022-07-31T06:59:06.070Z,7.28
2022-07-31T07:01:33.907Z,7.68
2022-07-31T07:06:28.245Z,7.20
2022-07-31T07:08:55.493Z,7.03
2022-07-31T07:11:22.924Z,6.50
2022-07-31T07:13:49.994Z,7.05
2022-07-31T07:16:17.290Z,7.20
2022-07-31T07:18:44.316Z,6.50
2022-07-31T07:21:12.383Z,6.07
2022-07-31T07:23:39.645Z,7.68
2022-07-31T07:26:07.306Z,6.65
2022-07-31T07:28:35.830Z,6.03
2022-07-31T07:31:05.598Z,6.15
2022-07-31T07:33:40.789Z,6.18
2022-07-31T07:36:22.272Z,5.65
2022-07-31T07:38:55.195Z,5.10
2022-07-31T07:41:25.106Z,5.95
2022-07-31T07:43:53.028Z,5.55
2022-07-31T07:46:23.662Z,5.10
2022-07-31T07:48:51.757Z,4.80
2022-07-31T07:51:20.792Z,5.20
2022-07-31T07:53:48.293Z,5.32
2022-07-31T07:56:15.467Z,5.47
2022-07-31T07:58:42.724Z,4.95
2022-07-31T08:01:09.879Z,5.03
2022-07-31T08:03:48.651Z,4.50
2022-07-31T08:06:23.417Z,5.82
2022-07-31T08:08:50.596Z,5.50
2022-07-31T08:11:18.160Z,4.93
2022-07-31T08:16:20.703Z,4.78
2022-07-31T08:18:50.098Z,4.70
2022-07-31T08:21:18.223Z,5.00
2022-07-31T08:23:45.431Z,4.55
2022-07-31T08:26:14.009Z,4.82
2022-07-31T08:28:49.860Z,4.93
2022-07-31T08:31:20.107Z,4.13
2022-07-31T08:33:47.712Z,4.88
2022-07-31T08:36:14.764Z,4.53
2022-07-31T08:38:41.768Z,4.20
2022-07-31T08:41:08.863Z,4.30
2022-07-31T08:44:02.990Z,3.40
2022-07-31T08:46:23.974Z,4.03
2022-07-31T08:48:57.361Z,4.40
2022-07-31T08:51:25.590Z,4.65
2022-07-31T08:53:54.593Z,5.05
2022-07-31T08:56:24.537Z,4.25
2022-07-31T08:58:51.952Z,4.43
2022-07-31T09:01:19.431Z,4.93
2022-07-31T09:03:46.764Z,4.40
2022-07-31T09:06:13.787Z,4.63
2022-07-31T09:08:41.180Z,4.47
2022-07-31T09:11:14.915Z,4.65
2022-07-31T09:14:02.625Z,4.70
2022-07-31T09:16:31.523Z,4.95
2022-07-31T09:19:51.250Z,4.50
2022-07-31T09:21:53.475Z,4.90
2022-07-31T09:24:39.589Z,4.80
2022-07-31T09:27:10.344Z,4.75
2022-07-31T09:29:44.791Z,4.70
2022-07-31T09:32:18.120Z,4.25
2022-07-31T09:34:47.974Z,5.65
2022-07-31T09:37:21.404Z,5.00
2022-07-31T09:39:55.664Z,4.90
2022-07-31T09:42:46.002Z,4.63
2022-07-31T09:45:25.691Z,4.53
2022-07-31T09:48:15.167Z,5.67
2022-07-31T09:51:08.260Z,5.13
2022-07-31T09:53:57.915Z,5.20
2022-07-31T09:56:36.202Z,4.57
2022-07-31T09:59:04.897Z,5.22
2022-07-31T10:01:36.567Z,4.80
2022-07-31T10:04:07.598Z,5.35
2022-07-31T10:06:37.864Z,4.68
2022-07-31T10:09:06.947Z,4.93
2022-07-31T10:11:34.495Z,5.28
2022-07-31T10:16:42.062Z,5.35
2022-07-31T10:19:14.120Z,5.10
2022-07-31T10:21:52.154Z,4.97
2022-07-31T10:24:27.904Z,5.18
2022-07-31T10:27:01.849Z,4.50
2022-07-31T10:29:39.474Z,4.95
2022-07-31T10:32:08.855Z,4.97
2022-07-31T10:34:37.128Z,4.38
2022-07-31T10:37:24.740Z,5.05
2022-07-31T10:40:35.747Z,4.28
2022-07-31T10:43:36.165Z,5.00
2022-07-31T10:46:03.225Z,4.80
2022-07-31T10:48:30.548Z,5.05
2022-07-31T10:51:09.677Z,5.05
2022-07-31T10:53:50.998Z,5.15
2022-07-31T10:56:18.851Z,5.18
2022-07-31T10:58:58.861Z,5.15
2022-07-31T11:01:26.607Z,5.57
2022-07-31T11:04:02.603Z,5.25
2022-07-31T11:06:42.302Z,5.35
2022-07-31T11:09:09.514Z,5.32
2022-07-31T11:11:38.298Z,5.10
2022-07-31T11:14:05.717Z,5.20
2022-07-31T11:16:32.882Z,5.55
2022-07-31T11:19:09.715Z,4.88
2022-07-31T11:21:42.281Z,5.57
2022-07-31T11:24:20.181Z,5.15
2022-07-31T11:26:58.378Z,5.35
2022-07-31T11:32:26.443Z,5.00
2022-07-31T11:34:57.537Z,4.90
2022-07-31T11:37:56.982Z,5.20
2022-07-31T11:40:22.300Z,6.13
2022-07-31T11:43:04.989Z,5.32
2022-07-31T11:45:55.122Z,5.50
2022-07-31T11:48:27.929Z,5.22
2022-07-31T11:50:55.398Z,5.28
2022-07-31T11:53:22.612Z,4.70
2022-07-31T11:56:00.689Z,6.53
2022-07-31T11:58:29.874Z,4.97
2022-07-31T12:01:04.009Z,5.30
2022-07-31T12:03:36.715Z,4.63
2022-07-31T12:06:08.544Z,4.70
2022-07-31T12:08:40.211Z,4.95
2022-07-31T12:11:11.432Z,5.15
2022-07-31T12:13:40.250Z,4.45
2022-07-31T12:16:11.454Z,4.72
2022-07-31T12:18:59.645Z,4.75
2022-07-31T12:21:38.357Z,4.72
2022-07-31T12:24:15.133Z,5.20
2022-07-31T12:27:01.320Z,5.10
2022-07-31T12:29:39.130Z,4.68
2022-07-31T12:32:07.823Z,5.13
2022-07-31T12:34:42.724Z,5.20
2022-07-31T12:37:17.593Z,4.78
2022-07-31T12:39:59.711Z,4.88
2022-07-31T12:42:41.982Z,4.72
2022-07-31T12:45:18.422Z,4.78
2022-07-31T12:47:51.295Z,5.15
2022-07-31T12:50:26.104Z,5.20
2022-07-31T12:52:58.630Z,5.15
2022-07-31T12:55:26.503Z,4.28
2022-07-31T12:57:53.658Z,4.30
2022-07-31T13:00:24.913Z,5.05
2022-07-31T13:02:55.340Z,5.10
2022-07-31T13:05:24.049Z,4.22
2022-07-31T13:07:52.208Z,4.20
2022-07-31T13:10:23.668Z,4.97
2022-07-31T13:12:52.205Z,5.10
2022-07-31T13:15:31.354Z,4.25
2022-07-31T13:18:05.155Z,4.38
2022-07-31T13:20:33.260Z,4.18
2022-07-31T13:23:02.286Z,5.15
2022-07-31T13:25:32.804Z,4.10
2022-07-31T13:28:01.123Z,3.80
2022-07-31T13:30:28.869Z,4.00
2022-07-31T13:32:56.063Z,4.22
2022-07-31T13:35:27.650Z,4.47
2022-07-31T13:37:56.907Z,4.38
2022-07-31T13:40:44.421Z,4.05
2022-07-31T13:43:12.472Z,4.03
2022-07-31T13:45:40.129Z,4.00
2022-07-31T13:48:09.747Z,4.57
2022-07-31T13:50:42.089Z,4.97
2022-07-31T13:53:10.990Z,3.92
2022-07-31T13:55:38.621Z,3.85
2022-07-31T13:58:06.051Z,3.90
2022-07-31T14:00:34.395Z,3.83
2022-07-31T14:03:01.567Z,3.70
2022-07-31T14:05:28.793Z,3.85
2022-07-31T14:08:03.223Z,3.83
2022-07-31T14:10:48.521Z,3.63
2022-07-31T14:13:20.163Z,3.83
2022-07-31T14:15:48.502Z,3.90
2022-07-31T14:18:16.119Z,3.85
2022-07-31T14:23:10.377Z,3.63
2022-07-31T14:25:40.392Z,3.95
2022-07-31T14:28:10.586Z,3.25
2022-07-31T14:30:41.913Z,3.45
2022-07-31T14:33:08.992Z,3.63
2022-07-31T14:35:36.393Z,3.30
2022-07-31T14:40:31.940Z,3.88
2022-07-31T14:42:59.612Z,3.28
2022-07-31T14:45:27.274Z,3.67
2022-07-31T14:47:55.333Z,3.58
2022-07-31T14:50:24.701Z,3.00
2022-07-31T14:52:51.943Z,3.50
2022-07-31T14:55:19.870Z,3.45
2022-07-31T14:57:47.006Z,3.08
2022-07-31T15:00:15.261Z,2.80
2022-07-31T15:02:45.012Z,3.20
2022-07-31T15:06:41.657Z,3.17
2022-07-31T15:08:00.768Z,2.88
2022-07-31T15:10:31.529Z,3.00
2022-07-31T15:12:58.668Z,2.50
2022-07-31T15:15:25.706Z,2.97
2022-07-31T15:17:55.876Z,2.00
2022-07-31T15:20:28.833Z,2.95
2022-07-31T15:23:00.459Z,2.47
2022-07-31T15:25:28.137Z,2.13
2022-07-31T15:27:55.166Z,2.50
2022-07-31T15:30:23.161Z,2.35
2022-07-31T15:32:53.368Z,2.35
2022-07-31T15:35:20.563Z,2.60
2022-07-31T15:37:49.514Z,2.40
2022-07-31T15:40:17.820Z,2.70
2022-07-31T15:42:47.708Z,2.50
2022-07-31T15:45:19.522Z,2.60
2022-07-31T15:47:48.687Z,3.17
2022-07-31T15:50:20.388Z,3.20
2022-07-31T15:52:49.542Z,2.38
2022-07-31T15:55:18.617Z,2.60
2022-07-31T15:57:45.670Z,2.42
2022-07-31T16:00:14.658Z,2.47
2022-07-31T16:02:43.257Z,2.50
2022-07-31T16:05:21.623Z,2.28
2022-07-31T16:08:33.095Z,2.00
2022-07-31T16:10:36.722Z,2.15
2022-07-31T16:13:04.283Z,1.95
2022-07-31T16:15:32.115Z,2.33
2022-07-31T16:17:59.099Z,2.20
2022-07-31T16:20:27.219Z,2.22
2022-07-31T16:23:01.865Z,2.38
2022-07-31T16:25:34.918Z,2.33
2022-07-31T16:28:04.447Z,2.00
2022-07-31T16:30:32.401Z,1.80
2022-07-31T16:32:59.541Z,1.85
2022-07-31T16:35:26.651Z,2.10
2022-07-31T16:37:55.386Z,2.63
2022-07-31T16:40:31.014Z,2.55
2022-07-31T16:43:50.706Z,2.17
2022-07-31T16:45:56.180Z,2.38
2022-07-31T16:48:23.757Z,2.58
2022-07-31T16:50:53.472Z,2.30
2022-07-31T16:54:11.076Z,2.33
2022-07-31T16:56:16.742Z,2.75
2022-07-31T16:58:44.253Z,2.17
2022-07-31T17:01:58.065Z,2.60
2022-07-31T17:04:03.802Z,2.55
2022-07-31T17:06:37.505Z,2.40
2022-07-31T17:09:15.749Z,2.55
2022-07-31T17:11:55.818Z,2.70
2022-07-31T17:14:27.311Z,2.15
2022-07-31T17:16:56.044Z,2.72
2022-07-31T17:19:42.543Z,2.25
2022-07-31T17:22:17.706Z,2.17
2022-07-31T17:24:51.236Z,2.30
2022-07-31T17:27:21.156Z,2.20
2022-07-31T17:29:49.203Z,2.28
2022-07-31T17:32:17.548Z,2.50
2022-07-31T17:34:45.880Z,2.45
2022-07-31T17:37:13.795Z,2.40
2022-07-31T17:39:41.319Z,2.40
2022-07-31T17:42:12.676Z,2.85
2022-07-31T17:44:40.508Z,2.90
2022-07-31T17:47:13.901Z,2.72
2022-07-31T17:52:08.401Z,2.40
2022-07-31T17:54:35.582Z,2.70
2022-07-31T17:57:03.868Z,2.60
2022-07-31T17:59:32.939Z,2.78
2022-07-31T18:02:03.146Z,2.50
2022-07-31T18:04:37.035Z,2.70
2022-07-31T18:07:07.392Z,2.75
2022-07-31T18:09:36.690Z,3.00
2022-07-31T18:12:05.233Z,2.42
2022-07-31T18:14:32.542Z,2.67
2022-07-31T18:17:00.017Z,2.58
2022-07-31T18:19:27.709Z,2.47
2022-07-31T18:21:55.887Z,3.15
2022-07-31T18:24:23.827Z,2.40
2022-07-31T18:26:55.937Z,2.70
2022-07-31T18:29:23.163Z,2.70
2022-07-31T18:31:50.337Z,2.50
2022-07-31T18:34:17.459Z,3.50
2022-07-31T18:36:44.647Z,2.78
2022-07-31T18:39:12.216Z,2.38
2022-07-31T18:44:06.562Z,2.70
2022-07-31T18:46:34.041Z,3.80
2022-07-31T18:49:01.355Z,4.25
2022-07-31T18:51:30.132Z,2.80
2022-07-31T18:53:57.896Z,2.65
2022-07-31T18:58:55.270Z,2.92
2022-07-31T19:01:24.031Z,2.67
2022-07-31T19:03:52.766Z,2.72
2022-07-31T19:06:20.795Z,3.20
2022-07-31T19:08:49.633Z,2.40
2022-07-31T19:11:17.024Z,2.47
2022-07-31T19:13:44.736Z,3.35
2022-07-31T19:18:40.414Z,2.55
2022-07-31T19:21:21.245Z,2.78
2022-07-31T19:23:51.291Z,2.38
2022-07-31T19:26:18.464Z,3.00
2022-07-31T19:28:45.585Z,2.83
2022-07-31T19:31:14.082Z,2.80
2022-07-31T19:33:41.888Z,2.92
2022-07-31T19:38:39.744Z,3.00
2022-07-31T19:41:07.348Z,3.22
2022-07-31T19:43:34.490Z,2.70
2022-07-31T19:46:10.693Z,2.85
2022-07-31T19:48:46.414Z,2.95
2022-07-31T19:51:16.000Z,3.00
2022-07-31T19:53:44.979Z,4.80
2022-07-31T19:56:19.674Z,3.17
2022-07-31T19:58:49.655Z,3.13
2022-07-31T20:01:20.472Z,3.53
2022-07-31T20:03:49.521Z,2.92
2022-07-31T20:06:17.310Z,2.88
2022-07-31T20:11:11.521Z,3.00
2022-07-31T20:13:38.713Z,2.78
2022-07-31T20:16:07.527Z,2.85
2022-07-31T20:18:35.002Z,3.03
2022-07-31T20:21:08.125Z,2.90
2022-07-31T20:23:39.039Z,2.67
2022-07-31T20:26:10.330Z,3.08
2022-07-31T20:28:40.472Z,2.40
2022-07-31T20:31:16.051Z,3.28
2022-07-31T20:33:57.399Z,2.90
2022-07-31T20:36:27.765Z,3.10
2022-07-31T20:38:56.664Z,2.85
2022-07-31T20:41:23.885Z,3.28
2022-07-31T20:43:51.039Z,2.90
2022-07-31T20:46:18.360Z,3.30
2022-07-31T20:48:45.664Z,2.53
2022-07-31T20:51:20.400Z,2.78
2022-07-31T20:53:48.512Z,3.00
2022-07-31T20:56:16.502Z,3.22
2022-07-31T20:58:49.471Z,3.25
2022-07-31T21:01:20.339Z,3.10
2022-07-31T21:03:49.229Z,3.65
2022-07-31T21:06:17.224Z,3.92
2022-07-31T21:08:44.235Z,5.55
2022-07-31T21:11:11.461Z,5.13
2022-07-31T21:13:38.507Z,4.22
2022-07-31T21:16:06.012Z,3.40
2022-07-31T21:18:34.952Z,3.22
2022-07-31T21:21:02.669Z,3.42
2022-07-31T21:23:29.757Z,3.10
2022-07-31T21:25:59.313Z,3.13
2022-07-31T21:28:28.481Z,3.22
2022-07-31T21:30:56.635Z,3.15
2022-07-31T21:33:27.829Z,3.20
2022-07-31T21:35:55.838Z,3.10
2022-07-31T21:38:24.517Z,3.33
2022-07-31T21:40:53.608Z,3.50
2022-07-31T21:43:22.711Z,3.47
2022-07-31T21:45:57.480Z,3.47
2022-07-31T21:48:31.838Z,3.20
2022-07-31T21:51:00.984Z,3.08
2022-07-31T21:53:28.096Z,3.00
2022-07-31T21:56:02.768Z,3.38
2022-07-31T21:58:29.808Z,3.40
2022-07-31T22:00:56.967Z,3.20
2022-07-31T22:03:25.474Z,3.15
2022-07-31T22:06:11.220Z,2.97
2022-07-31T22:08:38.422Z,3.58
2022-07-31T22:11:06.060Z,3.08
2022-07-31T22:13:33.376Z,3.60
2022-07-31T22:16:01.329Z,3.70
2022-07-31T22:18:29.465Z,3.50
2022-07-31T22:20:58.514Z,3.72
2022-07-31T22:23:28.986Z,3.53
2022-07-31T22:25:56.622Z,3.50
2022-07-31T22:28:26.950Z,4.28
2022-07-31T22:30:57.269Z,3.58
2022-07-31T22:33:25.308Z,3.50
2022-07-31T22:35:58.636Z,3.08
2022-07-31T22:38:30.905Z,3.67
2022-07-31T22:41:02.299Z,4.00
2022-07-31T22:44:10.832Z,3.45
2022-07-31T22:46:17.452Z,4.10
2022-07-31T22:48:47.485Z,3.92
2022-07-31T22:51:15.666Z,4.70
2022-07-31T22:53:44.561Z,3.47
2022-07-31T22:56:17.838Z,3.83
2022-07-31T22:58:44.935Z,4.15
2022-07-31T23:01:12.192Z,4.35
2022-07-31T23:03:39.303Z,3.85
2022-07-31T23:06:30.986Z,3.45
2022-07-31T23:08:54.623Z,4.07
2022-07-31T23:11:24.686Z,3.95
2022-07-31T23:13:52.967Z,4.00
2022-07-31T23:16:21.045Z,3.95
2022-07-31T23:18:50.198Z,4.10
2022-07-31T23:21:19.333Z,4.20
2022-07-31T23:23:49.303Z,4.32
2022-07-31T23:26:24.036Z,4.15
2022-07-31T23:28:54.112Z,4.32
2022-07-31T23:31:22.994Z,5.35
2022-07-31T23:33:51.691Z,4.85
2022-07-31T23:36:19.520Z,4.45
2022-07-31T23:41:14.614Z,4.78
2022-07-31T23:43:54.177Z,5.15
2022-07-31T23:46:26.886Z,4.85
2022-07-31T23:48:54.848Z,4.97
2022-07-31T23:51:23.276Z,4.80
2022-07-31T23:53:50.456Z,5.50
2022-07-31T23:56:19.625Z,4.88
2022-07-31T23:58:47.328Z,4.95
